< < Back
Terminal Aerodrome Forecast


Current Version              Previous Versions:   1  2  3  4  5  6  7  8  9  

Terminal Aerodrome Forecast

620
FTUS42 KTAE 311120
TAFABY
TAF
KABY 311120Z 3112/0112 00000KT 6SM BR BKN006
      TEMPO 3112/3113 5SM BR BKN002
     FM311400 21007KT P6SM SCT025
     FM311800 21007KT P6SM VCTS BKN035CB
      TEMPO 3119/3123 VRB15G25KT 3SM TSRA BR BKN030CB
     FM010000 18004KT P6SM SCT030 BKN100=



Latest METAR

245
SAUS70 KWBC 312256
MTRABY
METAR KABY 312253Z 17008KT 10SM VCTS SCT047 BKN100 31/25 A2988 RMK AO2
LTG DSNT N-E TSB27E42 SLP115 T03110250


USA.gov is the U.S. government's official web portal to all federal, state and local government web resources and services.